createdAt,value
2023-03-19T00:00:26.798Z,101205.13
2023-03-19T00:02:53.414Z,101195.28
2023-03-19T00:08:10.558Z,101188.13
2023-03-19T00:10:40.054Z,101189.13
2023-03-19T00:13:07.091Z,101192.69
2023-03-19T00:15:33.662Z,101186.41
2023-03-19T00:18:00.139Z,101191.00
2023-03-19T00:20:27.211Z,101194.75
2023-03-19T00:22:53.549Z,101194.91
2023-03-19T00:25:20.657Z,101195.78
2023-03-19T00:27:48.411Z,101191.34
2023-03-19T00:30:15.529Z,101185.91
2023-03-19T00:32:41.962Z,101186.09
2023-03-19T00:35:08.753Z,101184.38
2023-03-19T00:37:35.508Z,101186.09
2023-03-19T00:40:02.130Z,101185.22
2023-03-19T00:42:28.497Z,101188.78
2023-03-19T00:44:54.870Z,101186.25
2023-03-19T00:47:21.279Z,101186.41
2023-03-19T00:49:47.636Z,101181.81
2023-03-19T00:52:14.103Z,101189.97
2023-03-19T00:54:40.567Z,101191.84
2023-03-19T00:57:07.083Z,101196.44
2023-03-19T00:59:33.617Z,101197.44
2023-03-19T01:01:59.975Z,101194.75
2023-03-19T01:04:26.498Z,101195.59
2023-03-19T01:06:52.914Z,101198.31
2023-03-19T01:09:19.288Z,101198.47
2023-03-19T01:11:45.768Z,101189.44
2023-03-19T01:14:12.555Z,101197.44
2023-03-19T01:16:39.028Z,101195.59
2023-03-19T01:19:06.109Z,101193.03
2023-03-19T01:21:32.544Z,101195.75
2023-03-19T01:23:58.973Z,101200.31
2023-03-19T01:26:25.403Z,101200.31
2023-03-19T01:28:52.471Z,101204.91
2023-03-19T01:31:19.344Z,101204.91
2023-03-19T01:33:46.505Z,101198.63
2023-03-19T01:36:13.133Z,101207.63
2023-03-19T01:38:39.499Z,101202.38
2023-03-19T01:41:06.536Z,101205.09
2023-03-19T01:43:32.992Z,101205.25
2023-03-19T01:46:01.783Z,101209.66
2023-03-19T01:48:54.334Z,101208.97
2023-03-19T01:51:24.762Z,101213.41
2023-03-19T01:53:53.724Z,101213.41
2023-03-19T01:56:21.909Z,101212.72
2023-03-19T01:58:50.761Z,101210.84
2023-03-19T02:01:17.583Z,101216.28
2023-03-19T02:03:44.133Z,101209.16
2023-03-19T02:06:12.271Z,101213.72
2023-03-19T02:08:39.071Z,101212.88
2023-03-19T02:11:05.667Z,101212.03
2023-03-19T02:13:32.166Z,101208.47
2023-03-19T02:15:58.680Z,101207.59
2023-03-19T02:18:25.679Z,101201.16
2023-03-19T02:21:08.380Z,101194.00
2023-03-19T02:23:43.682Z,101199.63
2023-03-19T02:26:11.602Z,101197.75
2023-03-19T02:28:42.540Z,101202.34
2023-03-19T02:31:09.275Z,101191.47
2023-03-19T02:33:36.023Z,101198.78
2023-03-19T02:36:03.296Z,101202.34
2023-03-19T02:38:31.898Z,101196.06
2023-03-19T02:41:00.799Z,101200.66
2023-03-19T02:43:27.292Z,101214.22
2023-03-19T02:45:54.155Z,101207.94
2023-03-19T02:48:20.624Z,101211.66
2023-03-19T02:50:46.964Z,101207.09
2023-03-19T02:53:13.305Z,101212.53
2023-03-19T02:55:39.692Z,101208.09
2023-03-19T02:58:06.109Z,101219.81
2023-03-19T03:00:32.859Z,101209.97
2023-03-19T03:02:59.892Z,101197.41
2023-03-19T03:05:26.378Z,101200.13
2023-03-19T03:07:53.760Z,101207.25
2023-03-19T03:10:20.305Z,101210.81
2023-03-19T03:12:46.866Z,101209.97
2023-03-19T03:15:13.290Z,101216.25
2023-03-19T03:17:40.033Z,101205.38
2023-03-19T03:20:07.253Z,101209.13
2023-03-19T03:22:33.604Z,101213.72
2023-03-19T03:24:59.951Z,101200.97
2023-03-19T03:27:27.146Z,101199.94
2023-03-19T03:29:53.607Z,101196.38
2023-03-19T03:32:20.093Z,101202.00
2023-03-19T03:34:46.502Z,101208.28
2023-03-19T03:37:13.051Z,101198.44
2023-03-19T03:39:39.422Z,101191.97
2023-03-19T03:42:05.820Z,101189.25
2023-03-19T03:44:32.174Z,101195.53
2023-03-19T03:46:58.626Z,101194.69
2023-03-19T03:49:25.739Z,101194.88
2023-03-19T03:51:52.613Z,101203.38
2023-03-19T03:54:19.042Z,101194.19
2023-03-19T03:56:45.431Z,101195.88
2023-03-19T03:59:12.439Z,101198.59
2023-03-19T04:01:38.879Z,101187.72
2023-03-19T04:04:05.261Z,101186.75
2023-03-19T04:06:31.861Z,101195.56
2023-03-19T04:08:58.265Z,101196.41
2023-03-19T04:11:24.710Z,101201.84
2023-03-19T04:13:51.043Z,101197.25
2023-03-19T04:16:17.619Z,101195.38
2023-03-19T04:18:43.971Z,101205.25
2023-03-19T04:21:10.367Z,101210.50
2023-03-19T04:23:36.780Z,101203.38
2023-03-19T04:26:04.833Z,101228.69
2023-03-19T04:28:31.307Z,101270.13
2023-03-19T04:31:05.487Z,101258.41
2023-03-19T04:33:31.976Z,101237.50
2023-03-19T04:35:58.452Z,101266.41
2023-03-19T04:38:26.398Z,101249.09
2023-03-19T04:40:53.208Z,101244.66
2023-03-19T04:43:19.598Z,101249.09
2023-03-19T04:45:46.364Z,101259.09
2023-03-19T04:48:12.863Z,101249.94
2023-03-19T04:50:40.306Z,101267.94
2023-03-19T04:53:07.951Z,101269.78
2023-03-19T04:55:34.307Z,101278.78
2023-03-19T04:58:01.325Z,101269.63
2023-03-19T05:00:28.249Z,101270.31
2023-03-19T05:02:54.614Z,101279.16
2023-03-19T05:05:21.256Z,101273.72
2023-03-19T05:07:47.622Z,101279.00
2023-03-19T05:10:13.945Z,101272.72
2023-03-19T05:12:41.124Z,101276.28
2023-03-19T05:15:07.860Z,101280.69
2023-03-19T05:17:35.688Z,101282.38
2023-03-19T05:20:04.948Z,101277.78
2023-03-19T05:22:31.949Z,101274.22
2023-03-19T05:24:58.343Z,101282.38
2023-03-19T05:27:24.736Z,101276.94
2023-03-19T05:29:51.233Z,101283.22
2023-03-19T05:32:17.560Z,101286.84
2023-03-19T05:34:44.595Z,101281.41
2023-03-19T05:37:11.052Z,101277.66
2023-03-19T05:39:37.413Z,101276.94
2023-03-19T05:42:03.834Z,101284.78
2023-03-19T05:44:30.269Z,101300.25
2023-03-19T05:46:56.590Z,101302.13
2023-03-19T05:49:22.951Z,101307.38
2023-03-19T05:51:49.331Z,101306.53
2023-03-19T05:54:16.297Z,101304.84
2023-03-19T05:56:42.664Z,101304.84
2023-03-19T05:59:09.040Z,101316.56
2023-03-19T06:01:35.704Z,101317.41
2023-03-19T06:04:04.258Z,101322.84
2023-03-19T06:06:31.920Z,101332.69
2023-03-19T06:08:58.279Z,101335.41
2023-03-19T06:11:24.752Z,101337.13
2023-03-19T06:13:51.702Z,101346.13
2023-03-19T06:16:18.208Z,101359.72
2023-03-19T06:18:45.635Z,101345.09
2023-03-19T06:21:12.055Z,101356.81
2023-03-19T06:23:38.811Z,101355.81
2023-03-19T06:26:06.052Z,101362.25
2023-03-19T06:28:33.078Z,101357.50
2023-03-19T06:30:59.483Z,101357.50
2023-03-19T06:33:27.684Z,101358.38
2023-03-19T06:35:54.190Z,101359.22
2023-03-19T06:38:21.174Z,101348.34
2023-03-19T06:40:48.331Z,101345.63
2023-03-19T06:43:14.756Z,101349.19
2023-03-19T06:45:41.424Z,101348.34
2023-03-19T06:48:07.769Z,101340.88
2023-03-19T06:50:34.405Z,101307.94
2023-03-19T06:53:02.408Z,101293.16
2023-03-19T06:55:30.928Z,101270.22
2023-03-19T06:57:57.380Z,101274.81
2023-03-19T07:00:24.561Z,101235.91
2023-03-19T07:02:51.157Z,101238.94
2023-03-19T07:05:17.692Z,101267.16
2023-03-19T07:07:44.123Z,101287.03
2023-03-19T07:10:10.792Z,101284.31
2023-03-19T07:12:37.290Z,101269.88
2023-03-19T07:15:04.853Z,101280.91
2023-03-19T07:17:31.638Z,101287.19
2023-03-19T07:19:58.119Z,101281.59
2023-03-19T07:22:24.596Z,101285.34
2023-03-19T07:24:51.614Z,101296.88
2023-03-19T07:27:18.047Z,101301.31
2023-03-19T07:29:44.493Z,101304.03
2023-03-19T07:32:11.111Z,101313.72
2023-03-19T07:34:37.488Z,101313.72
2023-03-19T07:37:03.887Z,101329.88
2023-03-19T07:39:30.333Z,101319.84
2023-03-19T07:41:56.896Z,101322.56
2023-03-19T07:44:23.246Z,101354.00
2023-03-19T07:46:49.660Z,101359.44
2023-03-19T07:49:16.025Z,101363.69
2023-03-19T07:51:42.344Z,101366.25
2023-03-19T07:54:08.943Z,101357.78
2023-03-19T07:56:36.204Z,101357.63
2023-03-19T07:59:02.641Z,101370.22
2023-03-19T08:01:29.063Z,101371.91
2023-03-19T08:03:55.635Z,101369.19
2023-03-19T08:06:22.070Z,101389.25
2023-03-19T08:08:48.537Z,101390.09
2023-03-19T08:11:15.471Z,101399.13
2023-03-19T08:13:42.573Z,101411.69
2023-03-19T08:16:09.352Z,101430.72
2023-03-19T08:18:36.245Z,101436.34
2023-03-19T08:21:02.654Z,101429.03
2023-03-19T08:23:29.101Z,101432.59
2023-03-19T08:25:56.998Z,101407.28
2023-03-19T08:28:23.660Z,101425.28
2023-03-19T08:30:50.188Z,101408.13
2023-03-19T08:33:16.863Z,101389.94
2023-03-19T08:35:43.482Z,101371.75
2023-03-19T08:38:11.140Z,101346.41
2023-03-19T08:40:37.813Z,101334.69
2023-03-19T08:43:04.426Z,101322.97
2023-03-19T08:45:30.927Z,101311.25
2023-03-19T08:47:58.286Z,101306.66
2023-03-19T08:50:24.707Z,101294.09
2023-03-19T08:52:51.133Z,101293.19
2023-03-19T08:55:17.917Z,101267.88
2023-03-19T08:57:44.371Z,101265.53
2023-03-19T09:00:11.018Z,101270.78
2023-03-19T09:02:37.431Z,101277.78
2023-03-19T09:05:04.258Z,101286.78
2023-03-19T09:07:30.702Z,101300.91
2023-03-19T09:09:57.109Z,101313.13
2023-03-19T09:12:23.561Z,101326.25
2023-03-19T09:14:49.950Z,101323.16
2023-03-19T09:17:18.104Z,101326.41
2023-03-19T09:19:44.680Z,101359.75
2023-03-19T09:22:11.160Z,101367.56
2023-03-19T09:24:40.419Z,101375.56
2023-03-19T09:27:07.099Z,101394.44
2023-03-19T09:29:33.510Z,101381.84
2023-03-19T09:32:00.800Z,101377.06
2023-03-19T09:34:27.316Z,101379.44
2023-03-19T09:36:53.655Z,101387.22
2023-03-19T09:39:20.068Z,101395.53
2023-03-19T09:41:49.453Z,101411.78
2023-03-19T09:44:44.218Z,101422.22
2023-03-19T09:47:31.331Z,101418.69
2023-03-19T09:50:02.204Z,101412.88
2023-03-19T09:52:47.203Z,101417.84
2023-03-19T09:55:13.600Z,101418.34
2023-03-19T09:57:40.039Z,101417.00
2023-03-19T10:00:18.962Z,101415.84
2023-03-19T10:02:45.487Z,101418.22
2023-03-19T10:05:12.014Z,101418.75
2023-03-19T10:07:38.341Z,101406.66
2023-03-19T10:10:23.542Z,101407.38
2023-03-19T10:13:08.513Z,101396.31
2023-03-19T10:15:35.918Z,101389.69
2023-03-19T10:18:05.591Z,101376.09
2023-03-19T10:20:41.017Z,101380.50
2023-03-19T10:23:26.301Z,101378.63
2023-03-19T10:25:54.754Z,101382.19
2023-03-19T10:28:21.725Z,101371.13
2023-03-19T10:30:58.019Z,101359.59
2023-03-19T10:33:26.334Z,101358.56
2023-03-19T10:35:58.504Z,101344.81
2023-03-19T10:38:26.877Z,101339.38
2023-03-19T10:41:11.944Z,101326.59
2023-03-19T10:43:39.811Z,101321.16
2023-03-19T10:46:06.203Z,101318.44
2023-03-19T10:48:33.437Z,101313.00
2023-03-19T10:51:01.219Z,101321.16
2023-03-19T10:53:31.114Z,101311.97
2023-03-19T10:56:00.851Z,101304.84
2023-03-19T10:58:28.065Z,101307.38
2023-03-19T11:01:13.058Z,101292.94
2023-03-19T11:03:41.058Z,101300.25
2023-03-19T11:06:23.586Z,101295.66
2023-03-19T11:09:10.699Z,101297.53
2023-03-19T11:11:45.219Z,101291.06
2023-03-19T11:14:17.049Z,101291.91
2023-03-19T11:16:51.436Z,101278.47
2023-03-19T11:19:20.382Z,101279.97
2023-03-19T11:21:53.998Z,101278.13
2023-03-19T11:24:20.490Z,101276.25
2023-03-19T11:26:55.042Z,101274.38
2023-03-19T11:29:21.984Z,101268.75
2023-03-19T11:31:48.790Z,101275.06
2023-03-19T11:34:32.159Z,101271.34
2023-03-19T11:37:15.286Z,101272.19
2023-03-19T11:40:00.345Z,101271.16
2023-03-19T11:42:29.550Z,101265.19
2023-03-19T11:45:02.022Z,101268.44
2023-03-19T11:47:36.128Z,101266.38
2023-03-19T11:50:21.165Z,101272.84
2023-03-19T11:52:48.821Z,101265.38
2023-03-19T11:55:19.715Z,101270.81
2023-03-19T11:57:54.990Z,101270.81
2023-03-19T12:00:25.660Z,101274.38
2023-03-19T12:03:18.147Z,101272.50
2023-03-19T12:05:59.216Z,101280.50
2023-03-19T12:08:31.490Z,101279.50
2023-03-19T12:11:24.331Z,101279.50
2023-03-19T12:14:06.729Z,101275.91
2023-03-19T12:16:45.803Z,101276.06
2023-03-19T12:19:15.712Z,101285.94
2023-03-19T12:22:01.147Z,101290.38
2023-03-19T12:24:45.767Z,101287.66
2023-03-19T12:27:31.323Z,101286.78
2023-03-19T12:30:16.303Z,101288.50
2023-03-19T12:32:55.548Z,101293.09
2023-03-19T12:35:24.580Z,101293.94
2023-03-19T12:38:00.062Z,101292.91
2023-03-19T12:40:35.133Z,101293.94
2023-03-19T12:43:05.810Z,101305.69
2023-03-19T12:45:41.181Z,101304.84
2023-03-19T12:48:13.885Z,101299.41
2023-03-19T12:50:42.192Z,101306.53
2023-03-19T12:53:18.441Z,101307.38
2023-03-19T12:55:47.945Z,101297.53
2023-03-19T12:58:18.536Z,101302.78
2023-03-19T13:00:49.983Z,101300.06
2023-03-19T13:03:19.295Z,101293.59
2023-03-19T13:06:11.809Z,101306.34
2023-03-19T13:08:47.255Z,101301.75
2023-03-19T13:11:16.857Z,101291.03
2023-03-19T13:13:57.240Z,101300.91
2023-03-19T13:16:26.526Z,101302.78
2023-03-19T13:19:10.366Z,101301.94
2023-03-19T13:21:38.214Z,101297.34
2023-03-19T13:24:09.954Z,101296.31
2023-03-19T13:26:37.286Z,101302.78
2023-03-19T13:29:06.933Z,101299.03
2023-03-19T13:31:34.940Z,101303.47
2023-03-19T13:34:02.681Z,101301.59
2023-03-19T13:36:30.874Z,101304.13
2023-03-19T13:38:58.620Z,101300.56
2023-03-19T13:41:39.168Z,101295.97
2023-03-19T13:44:24.319Z,101297.66
2023-03-19T13:46:51.423Z,101297.66
2023-03-19T13:49:36.593Z,101296.66
2023-03-19T13:52:23.053Z,101289.34
2023-03-19T13:54:52.903Z,101282.03
2023-03-19T13:57:20.585Z,101292.91
2023-03-19T13:59:48.163Z,101287.28
2023-03-19T14:02:26.592Z,101287.28
2023-03-19T14:05:16.942Z,101281.00
2023-03-19T14:07:47.864Z,101282.03
2023-03-19T14:10:14.438Z,101278.28
2023-03-19T14:12:42.794Z,101280.81
2023-03-19T14:15:09.386Z,101268.22
2023-03-19T14:17:42.100Z,101268.09
2023-03-19T14:20:12.756Z,101268.09
2023-03-19T14:22:59.051Z,101276.25
2023-03-19T14:25:27.421Z,101274.38
2023-03-19T14:28:08.966Z,101269.06
2023-03-19T14:30:55.756Z,101267.19
2023-03-19T14:33:42.364Z,101268.09
2023-03-19T14:36:12.610Z,101264.31
2023-03-19T14:38:45.707Z,101267.06
2023-03-19T14:41:15.351Z,101251.75
2023-03-19T14:43:50.782Z,101261.59
2023-03-19T14:46:33.649Z,101266.03
2023-03-19T14:49:19.961Z,101267.91
2023-03-19T14:51:49.084Z,101264.16
2023-03-19T14:54:35.943Z,101255.97
2023-03-19T14:57:15.879Z,101263.13
2023-03-19T14:59:42.246Z,101261.28
2023-03-19T15:02:17.657Z,101256.66
2023-03-19T15:04:48.687Z,101256.66
2023-03-19T15:07:19.208Z,101259.41
2023-03-19T15:09:45.878Z,101257.50
2023-03-19T15:12:25.903Z,101262.97
2023-03-19T15:14:55.576Z,101263.81
2023-03-19T15:17:24.688Z,101262.97
2023-03-19T15:19:51.716Z,101269.25
2023-03-19T15:22:22.356Z,101264.66
2023-03-19T15:24:48.940Z,101262.13
2023-03-19T15:27:26.048Z,101261.94
2023-03-19T15:29:53.652Z,101266.53
2023-03-19T15:32:49.773Z,101258.38
2023-03-19T15:35:22.493Z,101253.94
2023-03-19T15:37:53.174Z,101252.91
2023-03-19T15:40:22.140Z,101253.75
2023-03-19T15:42:50.064Z,101259.22
2023-03-19T15:45:18.713Z,101257.31
2023-03-19T15:47:49.131Z,101249.16
2023-03-19T15:50:17.244Z,101244.75
2023-03-19T15:52:46.256Z,101255.47
2023-03-19T15:55:13.413Z,101257.31
2023-03-19T15:57:41.268Z,101257.66
2023-03-19T16:00:09.999Z,101256.47
2023-03-19T16:02:39.608Z,101255.47
2023-03-19T16:05:21.379Z,101257.31
2023-03-19T16:07:54.610Z,101263.63
2023-03-19T16:10:34.528Z,101261.75
2023-03-19T16:13:04.139Z,101266.34
2023-03-19T16:15:33.445Z,101263.63
2023-03-19T16:18:09.924Z,101261.94
2023-03-19T16:20:45.769Z,101269.06
2023-03-19T16:23:17.366Z,101275.53
2023-03-19T16:25:44.284Z,101274.50
2023-03-19T16:28:17.983Z,101270.09
2023-03-19T16:30:48.317Z,101282.03
2023-03-19T16:33:14.982Z,101277.22
2023-03-19T16:35:41.768Z,101283.53
2023-03-19T16:38:10.990Z,101287.13
2023-03-19T16:40:37.373Z,101290.69
2023-03-19T16:43:12.759Z,101278.44
2023-03-19T16:45:39.350Z,101289.84
2023-03-19T16:48:06.109Z,101288.97
2023-03-19T16:50:32.635Z,101286.94
2023-03-19T16:53:00.952Z,101287.78
2023-03-19T16:55:28.554Z,101280.47
2023-03-19T16:58:07.217Z,101280.47
2023-03-19T17:00:34.456Z,101285.75
2023-03-19T17:03:01.460Z,101288.34
2023-03-19T17:05:28.922Z,101286.63
2023-03-19T17:07:55.775Z,101295.66
2023-03-19T17:10:23.854Z,101289.34
2023-03-19T17:12:51.832Z,101292.09
2023-03-19T17:15:26.426Z,101295.66
2023-03-19T17:17:53.031Z,101296.66
2023-03-19T17:20:24.044Z,101294.81
2023-03-19T17:22:50.620Z,101302.97
2023-03-19T17:25:20.425Z,101288.63
2023-03-19T17:27:47.001Z,101289.47
2023-03-19T17:30:13.785Z,101294.09
2023-03-19T17:32:43.511Z,101295.97
2023-03-19T17:35:14.379Z,101301.41
2023-03-19T17:37:41.056Z,101299.72
2023-03-19T17:40:21.506Z,101303.28
2023-03-19T17:42:48.756Z,101307.88
2023-03-19T17:45:16.397Z,101306.19
2023-03-19T17:47:44.894Z,101311.63
2023-03-19T17:50:17.263Z,101308.03
2023-03-19T17:52:45.712Z,101316.38
2023-03-19T17:55:25.578Z,101307.38
2023-03-19T17:57:52.476Z,101310.94
2023-03-19T18:00:20.038Z,101314.69
2023-03-19T18:02:47.341Z,101307.38
2023-03-19T18:05:15.419Z,101313.84
2023-03-19T18:07:42.250Z,101320.13
2023-03-19T18:10:15.122Z,101320.13
2023-03-19T18:12:41.530Z,101313.84
2023-03-19T18:15:08.145Z,101308.56
2023-03-19T18:17:34.593Z,101316.72
2023-03-19T18:20:01.943Z,101321.16
2023-03-19T18:22:29.109Z,101328.63
2023-03-19T18:24:56.308Z,101325.91
2023-03-19T18:27:24.943Z,101330.50
2023-03-19T18:29:51.733Z,101325.06
2023-03-19T18:32:23.705Z,101324.22
2023-03-19T18:34:50.239Z,101327.78
2023-03-19T18:37:17.566Z,101322.34
2023-03-19T18:39:44.474Z,101327.97
2023-03-19T18:42:13.032Z,101328.13
2023-03-19T18:44:39.445Z,101326.09
2023-03-19T18:47:06.211Z,101324.38
2023-03-19T18:49:32.568Z,101327.97
2023-03-19T18:52:03.122Z,101319.81
2023-03-19T18:54:31.101Z,101327.09
2023-03-19T18:56:58.185Z,101332.53
2023-03-19T18:59:28.448Z,101333.41
2023-03-19T19:01:58.809Z,101327.09
2023-03-19T19:04:26.303Z,101326.44
2023-03-19T19:06:54.796Z,101328.97
2023-03-19T19:09:21.198Z,101336.13
2023-03-19T19:11:48.164Z,101337.13
2023-03-19T19:14:20.354Z,101333.56
2023-03-19T19:16:46.958Z,101337.13
2023-03-19T19:19:22.451Z,101340.88
2023-03-19T19:21:49.268Z,101335.25
2023-03-19T19:24:17.615Z,101340.88
2023-03-19T19:26:44.897Z,101344.63
2023-03-19T19:29:17.928Z,101345.31
2023-03-19T19:31:44.342Z,101347.19
2023-03-19T19:34:14.109Z,101353.47
2023-03-19T19:36:40.597Z,101350.94
2023-03-19T19:39:07.218Z,101352.63
2023-03-19T19:41:36.773Z,101351.59
2023-03-19T19:44:03.435Z,101352.63
2023-03-19T19:46:31.193Z,101356.38
2023-03-19T19:48:58.103Z,101352.81
2023-03-19T19:51:25.676Z,101363.69
2023-03-19T19:53:52.748Z,101360.97
2023-03-19T19:56:21.594Z,101364.53
2023-03-19T19:58:49.355Z,101363.69
2023-03-19T20:01:17.162Z,101364.53
2023-03-19T20:03:44.066Z,101367.25
2023-03-19T20:06:10.559Z,101360.97
2023-03-19T20:08:37.223Z,101370.16
2023-03-19T20:11:08.823Z,101360.97
2023-03-19T20:13:36.597Z,101364.53
2023-03-19T20:16:03.868Z,101363.69
2023-03-19T20:18:32.816Z,101357.41
2023-03-19T20:20:59.676Z,101360.97
2023-03-19T20:23:26.344Z,101354.69
2023-03-19T20:25:52.799Z,101353.84
2023-03-19T20:28:19.399Z,101356.38
2023-03-19T20:30:46.038Z,101360.13
2023-03-19T20:33:12.719Z,101361.13
2023-03-19T20:35:39.217Z,101364.53
2023-03-19T20:38:06.670Z,101363.69
2023-03-19T20:40:34.760Z,101360.97
2023-03-19T20:43:01.766Z,101365.56
2023-03-19T20:45:33.341Z,101375.59
2023-03-19T20:48:00.090Z,101363.84
2023-03-19T20:50:28.138Z,101368.28
2023-03-19T20:53:04.044Z,101372.88
2023-03-19T20:55:32.152Z,101366.56
2023-03-19T20:57:58.484Z,101368.44
2023-03-19T21:00:27.159Z,101366.56
2023-03-19T21:02:54.710Z,101372.00
2023-03-19T21:05:21.599Z,101369.28
2023-03-19T21:07:49.311Z,101365.72
2023-03-19T21:10:21.741Z,101364.88
2023-03-19T21:12:48.178Z,101370.31
2023-03-19T21:15:14.665Z,101363.00
2023-03-19T21:17:41.046Z,101371.16
2023-03-19T21:20:07.999Z,101372.00
2023-03-19T21:22:34.972Z,101368.44
2023-03-19T21:25:04.226Z,101361.31
2023-03-19T21:27:31.720Z,101363.00
2023-03-19T21:29:58.119Z,101367.78
2023-03-19T21:32:24.680Z,101370.50
2023-03-19T21:34:52.471Z,101365.72
2023-03-19T21:37:19.192Z,101364.03
2023-03-19T21:39:46.285Z,101366.75
2023-03-19T21:42:16.026Z,101369.47
2023-03-19T21:44:43.482Z,101365.91
2023-03-19T21:47:13.854Z,101355.00
2023-03-19T21:49:40.685Z,101354.16
2023-03-19T21:52:10.898Z,101364.88
2023-03-19T21:54:37.368Z,101356.88
2023-03-19T21:57:04.488Z,101365.06
2023-03-19T21:59:32.345Z,101365.06
2023-03-19T22:01:58.773Z,101365.06
2023-03-19T22:04:25.256Z,101357.72
2023-03-19T22:06:51.836Z,101362.34
2023-03-19T22:09:18.228Z,101362.34
2023-03-19T22:11:46.031Z,101356.03
2023-03-19T22:14:26.832Z,101361.47
2023-03-19T22:16:54.621Z,101364.34
2023-03-19T22:19:21.577Z,101366.06
2023-03-19T22:21:48.077Z,101366.06
2023-03-19T22:24:14.490Z,101368.81
2023-03-19T22:26:44.102Z,101369.81
2023-03-19T22:29:13.922Z,101368.81
2023-03-19T22:31:40.551Z,101368.81
2023-03-19T22:34:16.488Z,101368.09
2023-03-19T22:36:43.051Z,101362.16
2023-03-19T22:39:09.502Z,101365.91
2023-03-19T22:41:37.463Z,101362.16
2023-03-19T22:44:06.601Z,101365.03
2023-03-19T22:46:33.209Z,101369.66
2023-03-19T22:48:59.688Z,101368.94
2023-03-19T22:51:27.359Z,101368.09
2023-03-19T22:53:54.205Z,101363.69
2023-03-19T22:56:21.362Z,101366.41
2023-03-19T22:58:48.736Z,101358.25
2023-03-19T23:01:21.442Z,101348.53
2023-03-19T23:03:48.573Z,101362.00
2023-03-19T23:06:30.374Z,101352.97
2023-03-19T23:08:57.464Z,101353.81
2023-03-19T23:11:24.365Z,101353.97
2023-03-19T23:13:51.014Z,101351.94
2023-03-19T23:16:21.295Z,101357.38
2023-03-19T23:18:48.105Z,101351.09
2023-03-19T23:21:15.521Z,101350.25
2023-03-19T23:23:42.537Z,101355.00
2023-03-19T23:26:25.769Z,101366.59
2023-03-19T23:28:53.010Z,101356.03
2023-03-19T23:31:19.984Z,101359.78
2023-03-19T23:33:46.587Z,101360.78
2023-03-19T23:36:13.394Z,101364.53
2023-03-19T23:38:40.165Z,101352.97
2023-03-19T23:41:07.386Z,101365.88
2023-03-19T23:43:34.083Z,101362.13
2023-03-19T23:46:01.034Z,101361.47
2023-03-19T23:48:35.296Z,101354.13
2023-03-19T23:51:02.321Z,101357.03
2023-03-19T23:53:29.538Z,101352.78
2023-03-19T23:56:09.236Z,101359.06
2023-03-19T23:58:40.108Z,101359.25
